sensor_id;sensor_type;location;lat;lon;timestamp;pressure;altitude;pressure_sealevel;temperature;humidity
20015;BME280;61787;42.022;23.078;2023-05-10T00:00:18;96921.13;;;12.82;100.00
20015;BME280;61787;42.022;23.078;2023-05-10T00:01:20;96917.69;;;12.82;100.00
20015;BME280;61787;42.022;23.078;2023-05-10T00:02:21;96918.91;;;12.85;100.00
20015;BME280;61787;42.022;23.078;2023-05-10T00:03:23;96921.25;;;12.86;100.00
20015;BME280;61787;42.022;23.078;2023-05-10T00:04:25;96917.25;;;12.80;100.00
20015;BME280;61787;42.022;23.078;2023-05-10T00:05:28;96921.94;;;12.83;100.00
20015;BME280;61787;42.022;23.078;2023-05-10T00:06:30;96922.03;;;12.87;100.00
20015;BME280;61787;42.022;23.078;2023-05-10T00:07:32;96916.28;;;12.88;100.00
20015;BME280;61787;42.022;23.078;2023-05-10T00:08:34;96919.47;;;12.78;100.00
20015;BME280;61787;42.022;23.078;2023-05-10T00:09:35;96914.59;;;12.68;100.00
20015;BME280;61787;42.022;23.078;2023-05-10T00:10:37;96907.47;;;12.60;100.00
20015;BME280;61787;42.022;23.078;2023-05-10T00:11:39;96913.75;;;12.52;100.00
20015;BME280;61787;42.022;23.078;2023-05-10T00:12:41;96916.94;;;12.42;100.00
20015;BME280;61787;42.022;23.078;2023-05-10T00:13:43;96908.25;;;12.32;100.00
20015;BME280;61787;42.022;23.078;2023-05-10T00:14:45;96914.72;;;12.31;100.00
20015;BME280;61787;42.022;23.078;2023-05-10T00:15:46;96910.97;;;12.20;100.00
20015;BME280;61787;42.022;23.078;2023-05-10T00:16:48;96910.75;;;12.13;100.00
20015;BME280;61787;42.022;23.078;2023-05-10T00:17:49;96911.47;;;12.10;100.00
20015;BME280;61787;42.022;23.078;2023-05-10T00:18:51;96912.13;;;12.07;100.00
20015;BME280;61787;42.022;23.078;2023-05-10T00:19:53;96912.81;;;12.04;100.00
20015;BME280;61787;42.022;23.078;2023-05-10T00:20:54;96911.00;;;12.08;100.00
20015;BME280;61787;42.022;23.078;2023-05-10T00:21:56;96916.72;;;12.07;100.00
20015;BME280;61787;42.022;23.078;2023-05-10T00:22:57;96913.22;;;12.06;100.00
20015;BME280;61787;42.022;23.078;2023-05-10T00:23:59;96912.91;;;12.08;100.00
20015;BME280;61787;42.022;23.078;2023-05-10T00:25:01;96911.09;;;12.12;100.00
20015;BME280;61787;42.022;23.078;2023-05-10T00:26:03;96915.44;;;12.16;100.00
20015;BME280;61787;42.022;23.078;2023-05-10T00:27:04;96912.66;;;12.25;100.00
20015;BME280;61787;42.022;23.078;2023-05-10T00:28:06;96910.28;;;12.23;100.00
20015;BME280;61787;42.022;23.078;2023-05-10T00:29:07;96907.38;;;12.28;100.00
20015;BME280;61787;42.022;23.078;2023-05-10T00:30:09;96905.47;;;12.29;100.00
20015;BME280;61787;42.022;23.078;2023-05-10T00:31:11;96902.88;;;12.32;100.00
20015;BME280;61787;42.022;23.078;2023-05-10T00:32:12;96910.59;;;12.34;100.00
20015;BME280;61787;42.022;23.078;2023-05-10T00:33:15;96900.63;;;12.34;100.00
20015;BME280;61787;42.022;23.078;2023-05-10T00:34:16;96907.34;;;12.41;100.00
20015;BME280;61787;42.022;23.078;2023-05-10T00:35:18;96897.78;;;12.43;100.00
20015;BME280;61787;42.022;23.078;2023-05-10T00:36:20;96905.84;;;12.43;100.00
20015;BME280;61787;42.022;23.078;2023-05-10T00:37:22;96911.47;;;12.38;100.00
20015;BME280;61787;42.022;23.078;2023-05-10T00:38:24;96913.81;;;12.39;100.00
20015;BME280;61787;42.022;23.078;2023-05-10T00:39:25;96900.81;;;12.42;100.00
20015;BME280;61787;42.022;23.078;2023-05-10T00:40:29;96909.56;;;12.38;100.00
20015;BME280;61787;42.022;23.078;2023-05-10T00:41:31;96907.34;;;12.41;100.00
20015;BME280;61787;42.022;23.078;2023-05-10T00:42:34;96910.91;;;12.45;100.00
20015;BME280;61787;42.022;23.078;2023-05-10T00:43:35;96905.44;;;12.41;100.00
20015;BME280;61787;42.022;23.078;2023-05-10T00:44:37;96901.72;;;12.46;100.00
20015;BME280;61787;42.022;23.078;2023-05-10T00:45:40;96902.59;;;12.50;100.00
20015;BME280;61787;42.022;23.078;2023-05-10T00:46:41;96904.19;;;12.38;100.00
20015;BME280;61787;42.022;23.078;2023-05-10T00:47:43;96899.28;;;12.28;100.00
20015;BME280;61787;42.022;23.078;2023-05-10T00:48:45;96898.97;;;12.30;100.00
20015;BME280;61787;42.022;23.078;2023-05-10T00:49:47;96906.00;;;12.34;100.00
20015;BME280;61787;42.022;23.078;2023-05-10T00:50:49;96901.50;;;12.38;100.00
20015;BME280;61787;42.022;23.078;2023-05-10T00:51:50;96908.44;;;12.39;100.00
20015;BME280;61787;42.022;23.078;2023-05-10T00:52:52;96901.47;;;12.51;100.00
20015;BME280;61787;42.022;23.078;2023-05-10T00:53:54;96898.94;;;12.58;100.00
20015;BME280;61787;42.022;23.078;2023-05-10T00:54:57;96898.53;;;12.56;100.00
20015;BME280;61787;42.022;23.078;2023-05-10T00:55:59;96900.53;;;12.59;100.00
20015;BME280;61787;42.022;23.078;2023-05-10T00:57:02;96901.41;;;12.63;100.00
20015;BME280;61787;42.022;23.078;2023-05-10T00:58:04;96898.94;;;12.58;100.00
20015;BME280;61787;42.022;23.078;2023-05-10T00:59:08;96901.75;;;12.61;100.00
20015;BME280;61787;42.022;23.078;2023-05-10T01:00:10;96898.94;;;12.58;100.00
20015;BME280;61787;42.022;23.078;2023-05-10T01:01:13;96902.75;;;12.57;100.00
20015;BME280;61787;42.022;23.078;2023-05-10T01:02:15;96895.47;;;12.57;100.00
20015;BME280;61787;42.022;23.078;2023-05-10T01:03:16;96901.22;;;12.56;100.00
20015;BME280;61787;42.022;23.078;2023-05-10T01:04:18;96895.13;;;12.59;100.00
20015;BME280;61787;42.022;23.078;2023-05-10T01:05:23;96900.84;;;12.57;100.00
20015;BME280;61787;42.022;23.078;2023-05-10T01:06:24;96902.09;;;12.60;100.00
20015;BME280;61787;42.022;23.078;2023-05-10T01:07:26;96901.22;;;12.56;100.00
20015;BME280;61787;42.022;23.078;2023-05-10T01:08:28;96902.75;;;12.57;100.00
20015;BME280;61787;42.022;23.078;2023-05-10T01:09:30;96907.47;;;12.60;100.00
20015;BME280;61787;42.022;23.078;2023-05-10T01:10:32;96897.78;;;12.71;100.00
20015;BME280;61787;42.022;23.078;2023-05-10T01:11:37;96901.44;;;12.78;100.00
20015;BME280;61787;42.022;23.078;2023-05-10T01:12:40;96907.34;;;12.84;100.00
20015;BME280;61787;42.022;23.078;2023-05-10T01:13:49;96901.03;;;12.92;100.00
20015;BME280;61787;42.022;23.078;2023-05-10T01:14:54;96902.31;;;12.98;100.00
20015;BME280;61787;42.022;23.078;2023-05-10T01:15:56;96903.22;;;13.02;100.00
20015;BME280;61787;42.022;23.078;2023-05-10T01:16:58;96896.69;;;13.03;100.00
20015;BME280;61787;42.022;23.078;2023-05-10T01:18:01;96897.22;;;13.09;100.00
20015;BME280;61787;42.022;23.078;2023-05-10T01:20:18;96905.44;;;13.12;100.00
20015;BME280;61787;42.022;23.078;2023-05-10T01:33:59;96892.91;;;13.20;100.00
20015;BME280;61787;42.022;23.078;2023-05-10T01:35:11;96890.66;;;13.22;100.00
20015;BME280;61787;42.022;23.078;2023-05-10T01:37:42;96895.41;;;13.29;100.00
20015;BME280;61787;42.022;23.078;2023-05-10T01:39:01;96890.56;;;13.18;100.00
20015;BME280;61787;42.022;23.078;2023-05-10T01:40:30;96892.75;;;13.13;100.00
20015;BME280;61787;42.022;23.078;2023-05-10T01:42:45;96894.44;;;12.90;100.00
20015;BME280;61787;42.022;23.078;2023-05-10T01:45:10;96883.72;;;12.62;100.00
20015;BME280;61787;42.022;23.078;2023-05-10T01:46:19;96884.19;;;12.52;100.00
20015;BME280;61787;42.022;23.078;2023-05-10T01:47:38;96890.03;;;12.42;100.00
20015;BME280;61787;42.022;23.078;2023-05-10T01:48:45;96880.56;;;12.32;100.00
20015;BME280;61787;42.022;23.078;2023-05-10T01:49:53;96880.97;;;12.18;100.00
20015;BME280;61787;42.022;23.078;2023-05-10T01:50:56;96882.13;;;12.05;100.00
20015;BME280;61787;42.022;23.078;2023-05-10T01:52:04;96886.16;;;11.99;100.00
20015;BME280;61787;42.022;23.078;2023-05-10T01:53:09;96882.59;;;11.95;100.00
20015;BME280;61787;42.022;23.078;2023-05-10T01:54:14;96880.16;;;11.90;100.00
20015;BME280;61787;42.022;23.078;2023-05-10T01:55:20;96883.72;;;11.82;100.00
20015;BME280;61787;42.022;23.078;2023-05-10T01:56:24;96881.59;;;11.75;100.00
20015;BME280;61787;42.022;23.078;2023-05-10T01:57:32;96885.75;;;11.73;100.00
20015;BME280;61787;42.022;23.078;2023-05-10T01:58:36;96884.50;;;11.70;100.00
20015;BME280;61787;42.022;23.078;2023-05-10T01:59:43;96877.44;;;11.66;100.00
20015;BME280;61787;42.022;23.078;2023-05-10T02:00:47;96880.72;;;11.59;100.00
20015;BME280;61787;42.022;23.078;2023-05-10T02:01:51;96882.16;;;11.57;100.00
20015;BME280;61787;42.022;23.078;2023-05-10T02:02:55;96881.38;;;11.56;100.00
20015;BME280;61787;42.022;23.078;2023-05-10T02:03:57;96880.38;;;11.48;100.00
20015;BME280;61787;42.022;23.078;2023-05-10T02:05:00;96876.13;;;11.47;100.00
20015;BME280;61787;42.022;23.078;2023-05-10T02:06:04;96879.47;;;11.44;100.00
20015;BME280;61787;42.022;23.078;2023-05-10T02:07:07;96883.31;;;11.43;100.00
20015;BME280;61787;42.022;23.078;2023-05-10T02:08:10;96879.69;;;11.39;100.00
20015;BME280;61787;42.022;23.078;2023-05-10T02:09:12;96886.88;;;11.35;100.00
20015;BME280;61787;42.022;23.078;2023-05-10T02:10:15;96878.38;;;11.33;100.00
20015;BME280;61787;42.022;23.078;2023-05-10T02:11:19;96884.63;;;11.25;100.00
20015;BME280;61787;42.022;23.078;2023-05-10T02:12:23;96882.63;;;11.22;100.00
20015;BME280;61787;42.022;23.078;2023-05-10T02:13:26;96883.16;;;11.16;100.00
20015;BME280;61787;42.022;23.078;2023-05-10T02:14:30;96883.06;;;11.12;100.00
20015;BME280;61787;42.022;23.078;2023-05-10T02:15:33;96889.75;;;11.06;100.00
20015;BME280;61787;42.022;23.078;2023-05-10T02:16:36;96888.19;;;11.05;100.00
20015;BME280;61787;42.022;23.078;2023-05-10T02:17:39;96892.13;;;11.07;100.00
20015;BME280;61787;42.022;23.078;2023-05-10T02:18:43;96884.50;;;11.09;100.00
20015;BME280;61787;42.022;23.078;2023-05-10T02:19:46;96882.13;;;11.08;100.00
20015;BME280;61787;42.022;23.078;2023-05-10T02:20:48;96881.50;;;11.11;100.00
20015;BME280;61787;42.022;23.078;2023-05-10T02:21:51;96888.44;;;11.12;100.00
20015;BME280;61787;42.022;23.078;2023-05-10T02:22:55;96885.97;;;11.07;100.00
20015;BME280;61787;42.022;23.078;2023-05-10T02:23:57;96878.13;;;11.02;100.00
20015;BME280;61787;42.022;23.078;2023-05-10T02:25:01;96881.72;;;11.06;100.00
20015;BME280;61787;42.022;23.078;2023-05-10T02:26:05;96886.63;;;11.04;100.00
20015;BME280;61787;42.022;23.078;2023-05-10T02:27:08;96883.81;;;11.00;100.00
20015;BME280;61787;42.022;23.078;2023-05-10T02:28:11;96882.81;;;11.05;100.00
20015;BME280;61787;42.022;23.078;2023-05-10T02:29:15;96886.63;;;11.04;100.00
20015;BME280;61787;42.022;23.078;2023-05-10T02:30:18;96886.81;;;10.99;100.00
20015;BME280;61787;42.022;23.078;2023-05-10T02:31:20;96884.81;;;10.96;100.00
20015;BME280;61787;42.022;23.078;2023-05-10T02:32:25;96887.03;;;10.94;100.00
20015;BME280;61787;42.022;23.078;2023-05-10T02:33:29;96882.47;;;10.94;100.00
20015;BME280;61787;42.022;23.078;2023-05-10T02:34:32;96884.72;;;10.92;100.00
20015;BME280;61787;42.022;23.078;2023-05-10T02:35:35;96884.03;;;10.95;100.00
20015;BME280;61787;42.022;23.078;2023-05-10T02:36:38;96885.25;;;10.98;100.00
20015;BME280;61787;42.022;23.078;2023-05-10T02:37:41;96879.56;;;10.99;100.00
20015;BME280;61787;42.022;23.078;2023-05-10T02:38:45;96884.94;;;10.99;100.00
20015;BME280;61787;42.022;23.078;2023-05-10T02:39:54;96875.41;;;10.90;100.00
20015;BME280;61787;42.022;23.078;2023-05-10T02:40:57;96887.63;;;10.87;100.00
20015;BME280;61787;42.022;23.078;2023-05-10T02:42:00;96881.56;;;10.90;100.00
20015;BME280;61787;42.022;23.078;2023-05-10T02:43:02;96882.25;;;10.87;100.00
20015;BME280;61787;42.022;23.078;2023-05-10T02:44:06;96884.34;;;10.82;100.00
20015;BME280;61787;42.022;23.078;2023-05-10T02:45:16;96885.91;;;10.83;100.00
20015;BME280;61787;42.022;23.078;2023-05-10T02:46:19;96881.31;;;10.83;100.00
20015;BME280;61787;42.022;23.078;2023-05-10T02:47:21;96880.31;;;10.76;100.00
20015;BME280;61787;42.022;23.078;2023-05-10T02:48:23;96876.38;;;10.73;100.00
20015;BME280;61787;42.022;23.078;2023-05-10T02:49:24;96881.31;;;10.71;100.00
20015;BME280;61787;42.022;23.078;2023-05-10T02:50:28;96877.16;;;10.74;100.00
20015;BME280;61787;42.022;23.078;2023-05-10T02:51:32;96878.94;;;10.69;100.00
20015;BME280;61787;42.022;23.078;2023-05-10T02:52:40;96877.84;;;10.71;100.00
20015;BME280;61787;42.022;23.078;2023-05-10T02:53:44;96878.16;;;10.69;100.00
20015;BME280;61787;42.022;23.078;2023-05-10T02:54:50;96874.59;;;10.65;100.00
20015;BME280;61787;42.022;23.078;2023-05-10T02:55:57;96872.91;;;10.60;100.00
20015;BME280;61787;42.022;23.078;2023-05-10T02:57:01;96877.78;;;10.58;100.00
20015;BME280;61787;42.022;23.078;2023-05-10T02:58:05;96873.53;;;10.57;100.00
20015;BME280;61787;42.022;23.078;2023-05-10T02:59:07;96870.88;;;10.57;100.00
20015;BME280;61787;42.022;23.078;2023-05-10T03:00:09;96871.06;;;10.52;100.00
20015;BME280;61787;42.022;23.078;2023-05-10T03:01:11;96876.31;;;10.49;100.00
20015;BME280;61787;42.022;23.078;2023-05-10T03:02:13;96872.84;;;10.48;100.00
20015;BME280;61787;42.022;23.078;2023-05-10T03:03:14;96867.81;;;10.47;100.00
20015;BME280;61787;42.022;23.078;2023-05-10T03:04:16;96876.31;;;10.49;100.00
20015;BME280;61787;42.022;23.078;2023-05-10T03:05:18;96872.84;;;10.48;100.00
20015;BME280;61787;42.022;23.078;2023-05-10T03:06:20;96871.94;;;10.44;100.00
20015;BME280;61787;42.022;23.078;2023-05-10T03:07:22;96872.41;;;10.46;100.00
20015;BME280;61787;42.022;23.078;2023-05-10T03:08:24;96872.22;;;10.51;100.00
20015;BME280;61787;42.022;23.078;2023-05-10T03:09:26;96867.16;;;10.50;100.00
20015;BME280;61787;42.022;23.078;2023-05-10T03:10:29;96864.81;;;10.48;100.00
20015;BME280;61787;42.022;23.078;2023-05-10T03:11:43;96871.75;;;10.49;100.00
20015;BME280;61787;42.022;23.078;2023-05-10T03:12:52;96867.16;;;10.50;100.00
20015;BME280;61787;42.022;23.078;2023-05-10T03:14:13;96870.50;;;10.47;100.00
20015;BME280;61787;42.022;23.078;2023-05-10T03:15:25;96867.50;;;10.48;100.00
20015;BME280;61787;42.022;23.078;2023-05-10T03:16:57;96869.28;;;10.44;100.00
20015;BME280;61787;42.022;23.078;2023-05-10T03:18:04;96868.16;;;10.45;100.00
20015;BME280;61787;42.022;23.078;2023-05-10T03:19:17;96870.84;;;10.45;100.00
20015;BME280;61787;42.022;23.078;2023-05-10T03:20:35;96869.72;;;10.46;100.00
20015;BME280;61787;42.022;23.078;2023-05-10T03:21:41;96866.13;;;10.42;100.00
20015;BME280;61787;42.022;23.078;2023-05-10T03:22:55;96874.38;;;10.37;100.00
20015;BME280;61787;42.022;23.078;2023-05-10T03:24:12;96879.22;;;10.44;100.00
20015;BME280;61787;42.022;23.078;2023-05-10T03:25:16;96873.38;;;10.42;100.00
20015;BME280;61787;42.022;23.078;2023-05-10T03:26:26;96870.69;;;10.42;100.00
20015;BME280;61787;42.022;23.078;2023-05-10T03:27:29;96875.50;;;10.36;100.00
20015;BME280;61787;42.022;23.078;2023-05-10T03:28:33;96868.69;;;10.39;100.00
20015;BME280;61787;42.022;23.078;2023-05-10T03:29:36;96872.28;;;10.43;100.00
20015;BME280;61787;42.022;23.078;2023-05-10T03:30:38;96870.06;;;10.45;100.00
20015;BME280;61787;42.022;23.078;2023-05-10T03:31:40;96873.97;;;10.47;100.00
20015;BME280;61787;42.022;23.078;2023-05-10T03:32:42;96874.31;;;10.46;100.00
20015;BME280;61787;42.022;23.078;2023-05-10T03:33:50;96875.84;;;10.47;100.00
20015;BME280;61787;42.022;23.078;2023-05-10T03:34:52;96880.00;;;10.44;100.00
20015;BME280;61787;42.022;23.078;2023-05-10T03:35:54;96880.78;;;10.45;100.00
20015;BME280;61787;42.022;23.078;2023-05-10T03:36:55;96879.22;;;10.44;100.00
20015;BME280;61787;42.022;23.078;2023-05-10T03:37:57;96877.78;;;10.46;100.00
20015;BME280;61787;42.022;23.078;2023-05-10T03:38:58;96878.53;;;10.47;100.00
20015;BME280;61787;42.022;23.078;2023-05-10T03:40:01;96885.47;;;10.48;100.00
20015;BME280;61787;42.022;23.078;2023-05-10T03:41:02;96875.31;;;10.53;100.00
20015;BME280;61787;42.022;23.078;2023-05-10T03:42:04;96870.44;;;10.55;100.00
20015;BME280;61787;42.022;23.078;2023-05-10T03:43:05;96881.94;;;10.56;100.00
20015;BME280;61787;42.022;23.078;2023-05-10T03:44:07;96879.59;;;10.54;100.00
20015;BME280;61787;42.022;23.078;2023-05-10T03:45:09;96885.72;;;10.55;100.00
20015;BME280;61787;42.022;23.078;2023-05-10T03:46:11;96884.63;;;10.56;100.00
20015;BME280;61787;42.022;23.078;2023-05-10T03:47:12;96884.47;;;10.52;100.00
20015;BME280;61787;42.022;23.078;2023-05-10T03:48:14;96881.78;;;10.52;100.00
20015;BME280;61787;42.022;23.078;2023-05-10T03:49:16;96882.47;;;10.49;100.00
20015;BME280;61787;42.022;23.078;2023-05-10T03:50:17;96877.38;;;10.56;100.00
20015;BME280;61787;42.022;23.078;2023-05-10T03:51:20;96889.88;;;10.64;100.00
20015;BME280;61787;42.022;23.078;2023-05-10T03:52:21;96896.16;;;10.68;100.00
20015;BME280;61787;42.022;23.078;2023-05-10T03:53:23;96888.63;;;10.62;100.00
20015;BME280;61787;42.022;23.078;2023-05-10T03:54:25;96894.34;;;10.60;100.00
20015;BME280;61787;42.022;23.078;2023-05-10T03:55:27;96891.19;;;10.58;100.00
20015;BME280;61787;42.022;23.078;2023-05-10T03:56:29;96887.41;;;10.59;100.00
20015;BME280;61787;42.022;23.078;2023-05-10T03:57:31;96903.50;;;10.59;100.00
20015;BME280;61787;42.022;23.078;2023-05-10T03:58:33;96891.19;;;10.58;100.00
20015;BME280;61787;42.022;23.078;2023-05-10T03:59:35;96897.47;;;10.62;100.00
20015;BME280;61787;42.022;23.078;2023-05-10T04:00:36;96899.38;;;10.62;100.00
20015;BME280;61787;42.022;23.078;2023-05-10T04:01:38;96897.47;;;10.62;100.00
20015;BME280;61787;42.022;23.078;2023-05-10T04:02:40;96898.41;;;10.66;100.00
20015;BME280;61787;42.022;23.078;2023-05-10T04:03:42;96897.72;;;10.69;100.00
20015;BME280;61787;42.022;23.078;2023-05-10T04:04:43;96900.19;;;10.75;100.00
20015;BME280;61787;42.022;23.078;2023-05-10T04:05:45;96895.63;;;10.75;100.00
20015;BME280;61787;42.022;23.078;2023-05-10T04:06:46;96899.53;;;10.78;100.00
20015;BME280;61787;42.022;23.078;2023-05-10T04:07:48;96902.66;;;10.80;100.00
20015;BME280;61787;42.022;23.078;2023-05-10T04:08:51;96904.00;;;10.74;100.00
20015;BME280;61787;42.022;23.078;2023-05-10T04:09:52;96905.56;;;10.75;100.00
20015;BME280;61787;42.022;23.078;2023-05-10T04:10:54;96900.66;;;10.77;100.00
20015;BME280;61787;42.022;23.078;2023-05-10T04:11:55;96900.88;;;10.72;100.00
20015;BME280;61787;42.022;23.078;2023-05-10T04:12:57;96901.63;;;10.72;100.00
20015;BME280;61787;42.022;23.078;2023-05-10T04:13:59;96903.56;;;10.72;100.00
20015;BME280;61787;42.022;23.078;2023-05-10T04:15:01;96908.91;;;10.72;100.00
20015;BME280;61787;42.022;23.078;2023-05-10T04:16:02;96906.88;;;10.68;100.00
20015;BME280;61787;42.022;23.078;2023-05-10T04:17:04;96904.41;;;10.63;100.00
20015;BME280;61787;42.022;23.078;2023-05-10T04:18:06;96907.28;;;10.58;100.00
20015;BME280;61787;42.022;23.078;2023-05-10T04:19:09;96909.53;;;10.56;100.00
20015;BME280;61787;42.022;23.078;2023-05-10T04:20:11;96903.91;;;10.49;100.00
20015;BME280;61787;42.022;23.078;2023-05-10T04:21:13;96905.50;;;10.50;100.00
20015;BME280;61787;42.022;23.078;2023-05-10T04:22:15;96906.00;;;10.44;100.00
20015;BME280;61787;42.022;23.078;2023-05-10T04:23:17;96911.84;;;10.46;100.00
20015;BME280;61787;42.022;23.078;2023-05-10T04:24:18;96916.22;;;10.50;100.00
20015;BME280;61787;42.022;23.078;2023-05-10T04:25:20;96909.53;;;10.56;100.00
20015;BME280;61787;42.022;23.078;2023-05-10T04:26:22;96912.22;;;10.56;100.00
20015;BME280;61787;42.022;23.078;2023-05-10T04:27:23;96914.91;;;10.56;100.00
20015;BME280;61787;42.022;23.078;2023-05-10T04:28:25;96915.53;;;10.53;100.00
20015;BME280;61787;42.022;23.078;2023-05-10T04:29:27;96918.00;;;10.58;100.00
20015;BME280;61787;42.022;23.078;2023-05-10T04:30:28;96918.00;;;10.58;100.00
20015;BME280;61787;42.022;23.078;2023-05-10T04:31:30;96909.78;;;10.63;100.00
20015;BME280;61787;42.022;23.078;2023-05-10T04:32:32;96919.38;;;10.64;100.00
20015;BME280;61787;42.022;23.078;2023-05-10T04:33:34;96926.66;;;10.64;100.00
20015;BME280;61787;42.022;23.078;2023-05-10T04:34:36;96916.44;;;10.57;100.00
20015;BME280;61787;42.022;23.078;2023-05-10T04:35:38;96911.84;;;10.46;100.00
20015;BME280;61787;42.022;23.078;2023-05-10T04:36:41;96919.28;;;10.40;100.00
20015;BME280;61787;42.022;23.078;2023-05-10T04:37:42;96918.19;;;10.41;100.00
20015;BME280;61787;42.022;23.078;2023-05-10T04:38:44;96913.94;;;10.40;100.00
20015;BME280;61787;42.022;23.078;2023-05-10T04:39:46;96912.34;;;10.39;100.00
20015;BME280;61787;42.022;23.078;2023-05-10T04:40:47;96910.34;;;10.36;100.00
20015;BME280;61787;42.022;23.078;2023-05-10T04:41:49;96915.03;;;10.39;100.00
20015;BME280;61787;42.022;23.078;2023-05-10T04:42:50;96916.16;;;10.38;100.00
20015;BME280;61787;42.022;23.078;2023-05-10T04:43:52;96918.38;;;10.36;100.00
20015;BME280;61787;42.022;23.078;2023-05-10T04:44:54;96911.91;;;10.37;100.00
20015;BME280;61787;42.022;23.078;2023-05-10T04:45:56;96918.03;;;10.38;100.00
20015;BME280;61787;42.022;23.078;2023-05-10T04:46:58;96911.66;;;10.30;100.00
20015;BME280;61787;42.022;23.078;2023-05-10T04:48:00;96909.97;;;10.25;100.00
20015;BME280;61787;42.022;23.078;2023-05-10T04:49:01;96914.84;;;10.23;100.00
20015;BME280;61787;42.022;23.078;2023-05-10T04:50:04;96906.03;;;10.23;100.00
20015;BME280;61787;42.022;23.078;2023-05-10T04:51:05;96906.03;;;10.23;100.00
20015;BME280;61787;42.022;23.078;2023-05-10T04:52:07;96914.53;;;10.25;100.00
20015;BME280;61787;42.022;23.078;2023-05-10T04:53:09;96906.28;;;10.30;100.00
20015;BME280;61787;42.022;23.078;2023-05-10T04:54:11;96916.22;;;10.30;100.00
20015;BME280;61787;42.022;23.078;2023-05-10T04:55:12;96915.44;;;10.29;100.00
20015;BME280;61787;42.022;23.078;2023-05-10T04:56:14;96908.38;;;10.24;100.00
20015;BME280;61787;42.022;23.078;2023-05-10T04:57:17;96914.38;;;10.21;100.00
20015;BME280;61787;42.022;23.078;2023-05-10T04:58:20;96918.97;;;10.21;100.00
20015;BME280;61787;42.022;23.078;2023-05-10T04:59:22;96923.69;;;10.24;100.00
20015;BME280;61787;42.022;23.078;2023-05-10T05:00:25;96918.75;;;10.26;100.00
20015;BME280;61787;42.022;23.078;2023-05-10T05:01:27;96920.13;;;10.32;100.00
20015;BME280;61787;42.022;23.078;2023-05-10T05:02:29;96913.34;;;10.35;100.00
20015;BME280;61787;42.022;23.078;2023-05-10T05:03:31;96914.78;;;10.32;100.00
20015;BME280;61787;42.022;23.078;2023-05-10T05:04:34;96919.50;;;10.35;100.00
20015;BME280;61787;42.022;23.078;2023-05-10T05:05:35;96910.34;;;10.36;100.00
20015;BME280;61787;42.022;23.078;2023-05-10T05:06:37;96922.75;;;10.41;100.00
20015;BME280;61787;42.022;23.078;2023-05-10T05:07:39;96921.31;;;10.43;100.00
20015;BME280;61787;42.022;23.078;2023-05-10T05:08:40;96921.31;;;10.43;100.00
20015;BME280;61787;42.022;23.078;2023-05-10T05:09:42;96922.75;;;10.41;100.00
20015;BME280;61787;42.022;23.078;2023-05-10T05:10:44;96922.63;;;10.37;100.00
20015;BME280;61787;42.022;23.078;2023-05-10T05:11:45;96918.56;;;10.31;100.00
20015;BME280;61787;42.022;23.078;2023-05-10T05:12:47;96926.59;;;10.31;100.00
20015;BME280;61787;42.022;23.078;2023-05-10T05:13:48;96920.28;;;10.36;100.00
20015;BME280;61787;42.022;23.078;2023-05-10T05:14:50;96931.13;;;10.39;100.00
20015;BME280;61787;42.022;23.078;2023-05-10T05:15:52;96933.34;;;10.37;100.00
20015;BME280;61787;42.022;23.078;2023-05-10T05:16:53;96929.56;;;10.38;100.00
20015;BME280;61787;42.022;23.078;2023-05-10T05:17:55;96927.34;;;10.40;100.00
20015;BME280;61787;42.022;23.078;2023-05-10T05:18:57;96921.31;;;10.43;100.00
20015;BME280;61787;42.022;23.078;2023-05-10T05:19:58;96925.66;;;10.36;100.00
20015;BME280;61787;42.022;23.078;2023-05-10T05:21:00;96926.59;;;10.31;100.00
20015;BME280;61787;42.022;23.078;2023-05-10T05:22:02;96934.78;;;10.35;100.00
20015;BME280;61787;42.022;23.078;2023-05-10T05:23:04;96930.22;;;10.35;100.00
20015;BME280;61787;42.022;23.078;2023-05-10T05:24:05;96932.13;;;10.35;100.00
20015;BME280;61787;42.022;23.078;2023-05-10T05:25:08;96929.75;;;10.33;100.00
20015;BME280;61787;42.022;23.078;2023-05-10T05:26:09;96936.69;;;10.34;100.00
20015;BME280;61787;42.022;23.078;2023-05-10T05:27:11;96936.38;;;10.36;100.00
20015;BME280;61787;42.022;23.078;2023-05-10T05:28:13;96933.59;;;10.44;100.00
20015;BME280;61787;42.022;23.078;2023-05-10T05:29:15;96936.75;;;10.46;100.00
20015;BME280;61787;42.022;23.078;2023-05-10T05:30:17;96935.63;;;10.47;100.00
20015;BME280;61787;42.022;23.078;2023-05-10T05:31:19;96945.03;;;10.53;100.00
20015;BME280;61787;42.022;23.078;2023-05-10T05:32:21;96935.41;;;10.52;100.00
20015;BME280;61787;42.022;23.078;2023-05-10T05:33:23;96943.66;;;10.47;100.00
20015;BME280;61787;42.022;23.078;2023-05-10T05:34:24;96937.50;;;10.47;100.00
20015;BME280;61787;42.022;23.078;2023-05-10T05:35:27;96939.88;;;10.48;100.00
20015;BME280;61787;42.022;23.078;2023-05-10T05:36:28;96942.34;;;10.53;100.00
20015;BME280;61787;42.022;23.078;2023-05-10T05:37:30;96943.03;;;10.50;100.00
20015;BME280;61787;42.022;23.078;2023-05-10T05:38:32;96941.25;;;10.54;100.00
20015;BME280;61787;42.022;23.078;2023-05-10T05:39:35;96941.72;;;10.56;100.00
20015;BME280;61787;42.022;23.078;2023-05-10T05:40:37;96945.50;;;10.55;100.00
20015;BME280;61787;42.022;23.078;2023-05-10T05:41:39;96938.31;;;10.47;100.00
20015;BME280;61787;42.022;23.078;2023-05-10T05:42:40;96933.41;;;10.49;100.00
20015;BME280;61787;42.022;23.078;2023-05-10T05:43:42;96937.66;;;10.50;100.00